Time;durP1;ratioP1;P1;durP2;ratioP2;P2;SDS_P1;SDS_P2;PMS_P1;PMS_P2;Temp;Humidity;BMP_temperature;BMP_pressure;BME280_temperature;BME280_humidity;BME280_pressure;Samples;Min_cycle;Max_cycle;Signal;HPM_P1;HPM_P2
2024/01/24 00:01:42;;;;;;;19.50;3.63;;;;;;;;;;5092413;28;20413;-52
2024/01/24 00:04:08;;;;;;;21.98;3.85;;;;;;;;;;5068026;28;20402;-53
2024/01/24 00:06:34;;;;;;;17.42;3.78;;;;;;;;;;5072079;28;20379;-51
2024/01/24 00:09:00;;;;;;;16.17;3.80;;;;;;;;;;5085966;28;20378;-53
2024/01/24 00:11:29;;;;;;;18.17;3.65;;;;;;;;;;5087413;28;20903;-60
2024/01/24 00:13:56;;;;;;;16.33;3.72;;;;;;;;;;5091669;28;20420;-55
2024/01/24 00:16:22;;;;;;;16.83;4.22;;;;;;;;;;5092328;28;20377;-52
2024/01/24 00:18:48;;;;;;;16.48;4.40;;;;;;;;;;5083114;28;20529;-55
2024/01/24 00:21:14;;;;;;;17.70;4.40;;;;;;;;;;5091523;28;20388;-52
2024/01/24 00:23:40;;;;;;;22.77;4.35;;;;;;;;;;5091806;28;20866;-49
2024/01/24 00:26:06;;;;;;;16.60;4.15;;;;;;;;;;5092246;28;20381;-58
2024/01/24 00:28:32;;;;;;;13.48;4.40;;;;;;;;;;5090847;28;20414;-59
2024/01/24 00:30:58;;;;;;;20.80;4.40;;;;;;;;;;5091827;28;20465;-57
2024/01/24 00:33:27;;;;;;;16.95;3.97;;;;;;;;;;5085073;28;20415;-59
2024/01/24 00:35:53;;;;;;;16.75;4.10;;;;;;;;;;5073354;28;20423;-60
2024/01/24 00:38:19;;;;;;;15.32;4.10;;;;;;;;;;5073758;28;20382;-58
2024/01/24 00:40:45;;;;;;;24.10;4.57;;;;;;;;;;5091530;28;20871;-59
2024/01/24 00:43:11;;;;;;;13.25;4.03;;;;;;;;;;5090204;28;20408;-58
2024/01/24 00:45:37;;;;;;;21.85;4.43;;;;;;;;;;5091380;28;20484;-60
2024/01/24 00:48:03;;;;;;;17.05;4.30;;;;;;;;;;5091280;28;20377;-58
2024/01/24 00:50:29;;;;;;;10.77;4.00;;;;;;;;;;5083112;28;20761;-58
2024/01/24 00:52:55;;;;;;;17.85;4.35;;;;;;;;;;5071327;28;20372;-56
2024/01/24 00:55:22;;;;;;;15.75;4.25;;;;;;;;;;5071066;28;20380;-57
2024/01/24 00:57:48;;;;;;;13.55;3.95;;;;;;;;;;5075824;28;20788;-56
2024/01/24 01:00:14;;;;;;;16.05;4.32;;;;;;;;;;5090569;28;20393;-56
2024/01/24 01:02:40;;;;;;;10.95;3.90;;;;;;;;;;5074691;28;20446;-57
2024/01/24 01:05:07;;;;;;;14.65;3.80;;;;;;;;;;5070667;28;20387;-54
2024/01/24 01:07:33;;;;;;;10.90;3.50;;;;;;;;;;5064352;28;20418;-56
2024/01/24 01:09:59;;;;;;;18.23;3.83;;;;;;;;;;5090689;28;20413;-56
2024/01/24 01:12:25;;;;;;;12.00;3.97;;;;;;;;;;5086736;28;20732;-56
2024/01/24 01:14:51;;;;;;;13.20;4.05;;;;;;;;;;5086260;28;20517;-58
2024/01/24 01:17:17;;;;;;;10.00;4.10;;;;;;;;;;5090240;28;20421;-53
2024/01/24 01:19:42;;;;;;;13.63;4.32;;;;;;;;;;5089654;28;20410;-56
2024/01/24 01:22:08;;;;;;;10.18;3.97;;;;;;;;;;5091236;28;20374;-55
2024/01/24 01:24:34;;;;;;;11.68;4.20;;;;;;;;;;5090817;28;20393;-56
2024/01/24 01:27:00;;;;;;;17.27;4.55;;;;;;;;;;5090847;28;20385;-48
2024/01/24 01:29:26;;;;;;;8.50;4.00;;;;;;;;;;5090443;28;20398;-47
2024/01/24 01:31:52;;;;;;;12.37;4.30;;;;;;;;;;5089835;28;20393;-48
2024/01/24 01:34:18;;;;;;;15.53;4.80;;;;;;;;;;5089512;28;20431;-52
2024/01/24 01:36:44;;;;;;;9.73;3.97;;;;;;;;;;5082835;28;20430;-56
2024/01/24 01:39:10;;;;;;;9.88;4.07;;;;;;;;;;5089101;28;20374;-53
2024/01/24 01:41:36;;;;;;;12.57;4.03;;;;;;;;;;5091494;28;20382;-55
2024/01/24 01:44:03;;;;;;;10.60;4.00;;;;;;;;;;5090106;28;20389;-56
2024/01/24 01:46:29;;;;;;;9.77;3.60;;;;;;;;;;5075487;28;20410;-55
2024/01/24 01:48:56;;;;;;;10.98;3.55;;;;;;;;;;5084436;28;20765;-53
2024/01/24 01:51:23;;;;;;;11.43;3.75;;;;;;;;;;5082753;28;20909;-51
2024/01/24 01:53:49;;;;;;;10.70;3.63;;;;;;;;;;5090416;28;20412;-57
2024/01/24 01:56:18;;;;;;;9.63;3.40;;;;;;;;;;5089531;28;20523;-52
2024/01/24 01:58:44;;;;;;;10.68;3.88;;;;;;;;;;5089313;28;20567;-56
2024/01/24 02:01:11;;;;;;;8.75;3.20;;;;;;;;;;5090304;28;20374;-57
2024/01/24 02:03:37;;;;;;;9.10;3.10;;;;;;;;;;5088485;28;20412;-54
2024/01/24 02:06:03;;;;;;;8.45;3.28;;;;;;;;;;5087270;28;20405;-54
2024/01/24 02:08:32;;;;;;;8.35;3.30;;;;;;;;;;5090488;28;20374;-52
2024/01/24 02:10:59;;;;;;;7.78;2.92;;;;;;;;;;5076450;28;20404;-52
2024/01/24 02:13:30;;;;;;;7.40;2.60;;;;;;;;;;5071173;28;20447;-55
2024/01/24 02:15:56;;;;;;;8.30;2.40;;;;;;;;;;5090360;28;20393;-53
2024/01/24 02:18:22;;;;;;;6.47;2.70;;;;;;;;;;5089549;28;20370;-53
2024/01/24 02:20:48;;;;;;;6.07;2.53;;;;;;;;;;5090506;28;20793;-53
2024/01/24 02:23:15;;;;;;;6.13;2.47;;;;;;;;;;5086117;28;20801;-54
2024/01/24 02:25:42;;;;;;;7.05;2.15;;;;;;;;;;5090437;28;20378;-52
2024/01/24 02:28:08;;;;;;;6.53;2.20;;;;;;;;;;5090262;28;20363;-51
2024/01/24 02:30:34;;;;;;;6.10;2.13;;;;;;;;;;5089129;28;20476;-52
2024/01/24 02:33:00;;;;;;;5.65;2.13;;;;;;;;;;5090442;28;20374;-54
2024/01/24 02:35:27;;;;;;;6.13;2.20;;;;;;;;;;5084876;28;21135;-55
2024/01/24 02:37:53;;;;;;;5.15;1.95;;;;;;;;;;5090521;28;20461;-50
2024/01/24 02:40:19;;;;;;;6.43;2.03;;;;;;;;;;5089285;28;20480;-49
2024/01/24 02:42:45;;;;;;;4.93;2.10;;;;;;;;;;5089763;28;20454;-49
2024/01/24 02:45:11;;;;;;;4.90;2.15;;;;;;;;;;5092087;28;20389;-49
2024/01/24 02:47:37;;;;;;;5.57;1.80;;;;;;;;;;5094060;28;20389;-53
2024/01/24 02:50:04;;;;;;;5.00;2.28;;;;;;;;;;5094036;28;20396;-53
2024/01/24 02:52:30;;;;;;;7.57;2.07;;;;;;;;;;5092639;28;20767;-52
2024/01/24 02:54:56;;;;;;;6.55;1.80;;;;;;;;;;5093855;28;20444;-53
2024/01/24 02:57:22;;;;;;;7.93;1.80;;;;;;;;;;5090418;28;20386;-51
2024/01/24 02:59:48;;;;;;;5.43;1.75;;;;;;;;;;5089130;28;20490;-52
2024/01/24 03:02:14;;;;;;;4.30;1.73;;;;;;;;;;5093532;28;20382;-54
2024/01/24 03:04:40;;;;;;;4.03;1.60;;;;;;;;;;5075046;28;20384;-52
2024/01/24 03:07:06;;;;;;;4.03;1.80;;;;;;;;;;5073441;28;20814;-51
2024/01/24 03:09:32;;;;;;;5.13;1.88;;;;;;;;;;5076829;28;20411;-50
2024/01/24 03:11:58;;;;;;;4.93;1.52;;;;;;;;;;5090444;28;20407;-54
2024/01/24 03:14:24;;;;;;;4.35;1.60;;;;;;;;;;5091174;28;20421;-53
2024/01/24 03:16:50;;;;;;;4.28;1.48;;;;;;;;;;5093437;28;20373;-54
2024/01/24 03:19:16;;;;;;;4.20;1.77;;;;;;;;;;5093540;28;21009;-52
2024/01/24 03:21:43;;;;;;;5.18;1.52;;;;;;;;;;5093431;28;20378;-53
2024/01/24 03:24:09;;;;;;;2.80;1.15;;;;;;;;;;5091460;28;20378;-51
2024/01/24 03:26:35;;;;;;;3.88;1.63;;;;;;;;;;5078743;28;20397;-54
2024/01/24 03:29:02;;;;;;;5.03;1.52;;;;;;;;;;5093045;28;20390;-51
2024/01/24 03:31:28;;;;;;;6.00;1.50;;;;;;;;;;5085561;28;20408;-52
2024/01/24 03:33:54;;;;;;;4.53;1.50;;;;;;;;;;5092791;28;20426;-51
2024/01/24 03:36:19;;;;;;;5.57;1.50;;;;;;;;;;5093295;28;20362;-52
2024/01/24 03:38:45;;;;;;;3.15;1.33;;;;;;;;;;5093127;28;20393;-50
2024/01/24 03:41:11;;;;;;;6.10;1.30;;;;;;;;;;5073925;28;20430;-51
2024/01/24 03:43:41;;;;;;;5.93;1.60;;;;;;;;;;5072701;28;20410;-50
2024/01/24 03:46:07;;;;;;;5.13;1.58;;;;;;;;;;5089631;28;20455;-51
2024/01/24 03:48:33;;;;;;;5.95;1.50;;;;;;;;;;5092614;28;20374;-52
2024/01/24 03:50:59;;;;;;;4.55;1.33;;;;;;;;;;5081107;28;20505;-50
2024/01/24 03:53:25;;;;;;;5.50;1.58;;;;;;;;;;5072131;28;20433;-52
2024/01/24 03:55:51;;;;;;;4.03;1.20;;;;;;;;;;5071719;28;20383;-49
2024/01/24 03:58:18;;;;;;;5.68;1.40;;;;;;;;;;5077718;28;20396;-49
2024/01/24 04:00:44;;;;;;;4.20;1.23;;;;;;;;;;5090572;28;20890;-48
2024/01/24 04:03:10;;;;;;;4.75;1.30;;;;;;;;;;5089667;28;20449;-49
2024/01/24 04:05:36;;;;;;;4.57;1.63;;;;;;;;;;5071922;28;20384;-49
2024/01/24 04:08:02;;;;;;;5.33;1.20;;;;;;;;;;5072348;28;20452;-50
2024/01/24 04:10:28;;;;;;;6.47;1.60;;;;;;;;;;5072242;28;20383;-48
2024/01/24 04:12:54;;;;;;;3.40;1.42;;;;;;;;;;5075243;28;20902;-49
2024/01/24 04:15:20;;;;;;;3.80;1.35;;;;;;;;;;5079475;28;20424;-54
2024/01/24 04:17:46;;;;;;;3.63;1.20;;;;;;;;;;5087104;28;20401;-50
2024/01/24 04:20:12;;;;;;;4.72;1.20;;;;;;;;;;5092222;28;20377;-48
2024/01/24 04:22:38;;;;;;;3.10;1.10;;;;;;;;;;5091227;28;20966;-51
2024/01/24 04:25:05;;;;;;;7.28;1.60;;;;;;;;;;5091861;28;20382;-49
2024/01/24 04:27:31;;;;;;;4.25;1.23;;;;;;;;;;5092466;28;20457;-49
2024/01/24 04:29:57;;;;;;;4.70;1.40;;;;;;;;;;5092051;28;20385;-49
2024/01/24 04:32:23;;;;;;;3.80;1.08;;;;;;;;;;5090844;28;20401;-49
2024/01/24 04:34:48;;;;;;;4.40;1.30;;;;;;;;;;5090413;28;20402;-48
2024/01/24 04:37:14;;;;;;;5.55;1.10;;;;;;;;;;5086506;28;20399;-49
2024/01/24 04:39:41;;;;;;;6.68;1.38;;;;;;;;;;5062955;28;20873;-48
2024/01/24 04:42:07;;;;;;;7.72;1.80;;;;;;;;;;5079947;28;20384;-49
2024/01/24 04:44:33;;;;;;;3.45;1.20;;;;;;;;;;5076463;28;20869;-49
2024/01/24 04:46:59;;;;;;;5.47;1.50;;;;;;;;;;5073277;28;20840;-48
2024/01/24 04:49:25;;;;;;;2.88;1.10;;;;;;;;;;5071480;28;20451;-48
2024/01/24 04:51:51;;;;;;;3.85;1.40;;;;;;;;;;5071454;28;20455;-48
2024/01/24 04:54:17;;;;;;;3.83;1.33;;;;;;;;;;5070833;28;20411;-49
2024/01/24 04:56:46;;;;;;;4.90;1.70;;;;;;;;;;5071367;28;20443;-52
2024/01/24 04:59:15;;;;;;;5.07;1.23;;;;;;;;;;5081647;28;20913;-52
2024/01/24 05:01:42;;;;;;;4.15;1.58;;;;;;;;;;5090662;28;20883;-55
2024/01/24 05:04:09;;;;;;;4.13;1.25;;;;;;;;;;5083040;28;20412;-51
2024/01/24 05:06:35;;;;;;;2.80;1.30;;;;;;;;;;5091106;28;20471;-52
2024/01/24 05:09:01;;;;;;;4.38;1.55;;;;;;;;;;5087182;28;20405;-54
2024/01/24 05:11:27;;;;;;;3.65;1.30;;;;;;;;;;5088378;28;20381;-52
2024/01/24 05:13:55;;;;;;;5.88;1.70;;;;;;;;;;5081351;28;20501;-50
2024/01/24 05:16:21;;;;;;;4.95;1.55;;;;;;;;;;5085855;28;20459;-52
2024/01/24 05:18:47;;;;;;;5.38;1.48;;;;;;;;;;5089019;28;20386;-52
2024/01/24 05:21:13;;;;;;;5.93;1.52;;;;;;;;;;5089159;28;20381;-52
2024/01/24 05:23:40;;;;;;;4.32;1.77;;;;;;;;;;5090581;28;20488;-52
2024/01/24 05:26:06;;;;;;;5.20;1.27;;;;;;;;;;5088746;28;20439;-52
2024/01/24 05:28:32;;;;;;;3.22;1.27;;;;;;;;;;5088901;28;20804;-51
2024/01/24 05:30:59;;;;;;;3.07;1.27;;;;;;;;;;5084131;28;20418;-51
2024/01/24 05:33:25;;;;;;;3.10;1.27;;;;;;;;;;5081703;28;20761;-51
2024/01/24 05:35:52;;;;;;;5.72;1.45;;;;;;;;;;5090136;28;20378;-54
2024/01/24 05:38:18;;;;;;;6.07;1.40;;;;;;;;;;5078988;28;20956;-51
2024/01/24 05:40:44;;;;;;;3.78;1.35;;;;;;;;;;5079402;28;20915;-52
2024/01/24 05:43:10;;;;;;;2.95;1.42;;;;;;;;;;5088739;28;20947;-53
2024/01/24 05:45:36;;;;;;;3.30;1.00;;;;;;;;;;5083221;28;20411;-52
2024/01/24 05:48:02;;;;;;;4.63;1.30;;;;;;;;;;5081701;28;20430;-51
2024/01/24 05:50:28;;;;;;;3.03;1.10;;;;;;;;;;5077566;28;20411;-55
2024/01/24 05:52:54;;;;;;;2.45;1.05;;;;;;;;;;5086640;28;20393;-52
2024/01/24 05:55:20;;;;;;;4.20;1.23;;;;;;;;;;5083744;28;20410;-54
2024/01/24 05:57:46;;;;;;;4.03;1.13;;;;;;;;;;5080971;28;20409;-52
2024/01/24 06:00:15;;;;;;;5.00;1.00;;;;;;;;;;5081863;28;20871;-54
2024/01/24 06:02:47;;;;;;;3.80;1.10;;;;;;;;;;5078500;28;20396;-53
2024/01/24 06:05:15;;;;;;;4.10;1.10;;;;;;;;;;5084127;28;20386;-50
2024/01/24 06:07:41;;;;;;;4.07;1.20;;;;;;;;;;5088821;28;20882;-52
2024/01/24 06:10:07;;;;;;;2.70;1.23;;;;;;;;;;5083604;28;20932;-56
2024/01/24 06:12:33;;;;;;;2.00;0.90;;;;;;;;;;5069744;28;20411;-54
2024/01/24 06:15:00;;;;;;;3.70;1.10;;;;;;;;;;5089525;28;20414;-54
2024/01/24 06:17:25;;;;;;;3.67;1.20;;;;;;;;;;5089383;28;20378;-50
2024/01/24 06:19:52;;;;;;;5.60;1.20;;;;;;;;;;5090031;28;20404;-52
2024/01/24 06:22:18;;;;;;;3.53;1.00;;;;;;;;;;5093757;28;20386;-50
2024/01/24 06:24:44;;;;;;;2.30;1.03;;;;;;;;;;5092604;28;20374;-51
2024/01/24 06:27:11;;;;;;;4.82;1.17;;;;;;;;;;5085319;28;20417;-52
2024/01/24 06:29:37;;;;;;;5.18;1.00;;;;;;;;;;5086899;28;20416;-50
2024/01/24 06:32:03;;;;;;;2.42;0.90;;;;;;;;;;5084707;28;20771;-51
2024/01/24 06:34:28;;;;;;;2.03;0.90;;;;;;;;;;5085345;28;20480;-51
2024/01/24 06:36:54;;;;;;;2.70;0.82;;;;;;;;;;5092637;28;20457;-51
2024/01/24 06:39:20;;;;;;;1.80;0.77;;;;;;;;;;5091610;28;20447;-51
2024/01/24 06:41:46;;;;;;;2.50;0.70;;;;;;;;;;5093888;28;20374;-50
2024/01/24 06:44:12;;;;;;;1.90;1.02;;;;;;;;;;5092028;28;20382;-50
2024/01/24 06:46:42;;;;;;;1.88;0.70;;;;;;;;;;5091794;28;20457;-51
2024/01/24 06:49:10;;;;;;;3.50;0.90;;;;;;;;;;5085487;28;20873;-50
2024/01/24 06:51:37;;;;;;;2.35;0.70;;;;;;;;;;5091533;28;20405;-50
2024/01/24 06:54:03;;;;;;;1.80;0.60;;;;;;;;;;5081275;28;20412;-50
2024/01/24 06:56:29;;;;;;;2.63;0.98;;;;;;;;;;5085351;28;20902;-49
2024/01/24 06:58:55;;;;;;;2.70;1.00;;;;;;;;;;5088977;28;20397;-48
2024/01/24 07:01:21;;;;;;;2.40;1.00;;;;;;;;;;5087339;28;20381;-49
2024/01/24 07:03:47;;;;;;;3.33;0.90;;;;;;;;;;5092737;28;20386;-48
2024/01/24 07:06:13;;;;;;;3.60;1.00;;;;;;;;;;5092971;28;20744;-48
2024/01/24 07:08:40;;;;;;;4.40;1.00;;;;;;;;;;5092144;28;20444;-51
2024/01/24 07:11:06;;;;;;;4.93;1.00;;;;;;;;;;5093213;28;20449;-49
2024/01/24 07:13:32;;;;;;;5.13;1.30;;;;;;;;;;5090972;28;20405;-51
2024/01/24 07:16:00;;;;;;;7.17;1.43;;;;;;;;;;5088760;28;20870;-50
2024/01/24 07:18:26;;;;;;;7.07;1.27;;;;;;;;;;5086953;28;20382;-50
2024/01/24 07:20:52;;;;;;;11.45;1.60;;;;;;;;;;5088783;28;20739;-49
2024/01/24 07:23:18;;;;;;;8.35;2.00;;;;;;;;;;5086778;28;20385;-51
2024/01/24 07:25:44;;;;;;;6.37;1.50;;;;;;;;;;5092183;28;20369;-50
2024/01/24 07:28:10;;;;;;;11.87;2.20;;;;;;;;;;5092153;28;20370;-50
2024/01/24 07:30:36;;;;;;;12.48;2.03;;;;;;;;;;5090804;28;20393;-51
2024/01/24 07:33:04;;;;;;;9.68;2.13;;;;;;;;;;5090623;28;20429;-50
2024/01/24 07:35:30;;;;;;;13.30;2.15;;;;;;;;;;5091673;28;20406;-50
2024/01/24 07:37:56;;;;;;;11.00;2.03;;;;;;;;;;5091922;28;20399;-50
2024/01/24 07:40:24;;;;;;;10.93;1.85;;;;;;;;;;5088851;28;20368;-51
2024/01/24 07:42:50;;;;;;;9.02;2.15;;;;;;;;;;5082402;28;20370;-51
2024/01/24 07:45:16;;;;;;;9.30;2.33;;;;;;;;;;5073325;28;20442;-51
2024/01/24 07:47:43;;;;;;;16.15;2.85;;;;;;;;;;5091924;28;20382;-49
2024/01/24 07:50:11;;;;;;;14.83;2.70;;;;;;;;;;5090003;28;20879;-51
2024/01/24 07:52:37;;;;;;;12.70;1.98;;;;;;;;;;5092138;28;20895;-50
2024/01/24 07:55:03;;;;;;;14.38;2.78;;;;;;;;;;5089188;28;20458;-50
2024/01/24 07:57:29;;;;;;;15.85;2.20;;;;;;;;;;5090188;28;20535;-50
2024/01/24 07:59:55;;;;;;;16.02;2.50;;;;;;;;;;5091526;28;20378;-50
2024/01/24 08:02:21;;;;;;;12.52;2.38;;;;;;;;;;5091363;28;20475;-50
2024/01/24 08:04:47;;;;;;;10.25;2.03;;;;;;;;;;5090955;28;20847;-50
2024/01/24 08:07:13;;;;;;;13.73;2.25;;;;;;;;;;5091516;28;20382;-51
2024/01/24 08:09:39;;;;;;;11.30;2.33;;;;;;;;;;5091504;28;20370;-52
2024/01/24 08:12:05;;;;;;;14.93;2.27;;;;;;;;;;5091610;28;20362;-53
2024/01/24 08:14:31;;;;;;;16.95;2.88;;;;;;;;;;5089195;28;20425;-52
2024/01/24 08:17:01;;;;;;;11.87;2.20;;;;;;;;;;5091262;28;20756;-54
2024/01/24 08:19:27;;;;;;;11.82;2.65;;;;;;;;;;5072834;28;20386;-50
2024/01/24 08:21:54;;;;;;;13.40;2.42;;;;;;;;;;5091479;28;20378;-53
2024/01/24 08:24:20;;;;;;;11.40;2.28;;;;;;;;;;5090998;28;20390;-50
2024/01/24 08:26:45;;;;;;;10.82;2.13;;;;;;;;;;5091305;28;20390;-54
2024/01/24 08:29:11;;;;;;;12.30;2.40;;;;;;;;;;5089712;28;20402;-55
2024/01/24 08:31:37;;;;;;;13.95;2.67;;;;;;;;;;5091233;28;20386;-55
2024/01/24 08:34:03;;;;;;;14.10;2.15;;;;;;;;;;5090325;28;20405;-55
2024/01/24 08:36:29;;;;;;;11.68;2.40;;;;;;;;;;5091175;28;20370;-54
2024/01/24 08:38:55;;;;;;;13.60;2.57;;;;;;;;;;5091648;28;20389;-56
2024/01/24 08:41:21;;;;;;;12.87;1.80;;;;;;;;;;5090682;28;20863;-57
2024/01/24 08:43:47;;;;;;;7.70;1.88;;;;;;;;;;5083500;28;20427;-55
2024/01/24 08:46:13;;;;;;;12.15;2.10;;;;;;;;;;5089111;28;21377;-54
2024/01/24 08:48:39;;;;;;;10.70;2.20;;;;;;;;;;5090340;28;20402;-54
2024/01/24 08:51:05;;;;;;;13.25;2.38;;;;;;;;;;5088685;28;20961;-52
2024/01/24 08:53:32;;;;;;;10.10;1.83;;;;;;;;;;5090246;28;20465;-55
2024/01/24 08:55:58;;;;;;;14.23;2.53;;;;;;;;;;5090787;28;20411;-55
2024/01/24 08:58:24;;;;;;;10.05;2.30;;;;;;;;;;5090724;28;20743;-57
2024/01/24 09:00:50;;;;;;;10.75;2.20;;;;;;;;;;5090395;28;20400;-54
2024/01/24 09:03:16;;;;;;;16.45;2.60;;;;;;;;;;5090096;28;20381;-50
2024/01/24 09:05:42;;;;;;;15.45;2.63;;;;;;;;;;5090737;28;20378;-52
2024/01/24 09:08:08;;;;;;;13.25;2.58;;;;;;;;;;5089104;28;21180;-53
2024/01/24 09:10:36;;;;;;;12.32;2.35;;;;;;;;;;5090356;28;20378;-55
2024/01/24 09:13:01;;;;;;;12.13;2.75;;;;;;;;;;5090341;28;20385;-53
2024/01/24 09:15:27;;;;;;;12.02;2.50;;;;;;;;;;5089951;28;20776;-52
2024/01/24 09:17:53;;;;;;;13.32;2.25;;;;;;;;;;5089869;28;20363;-53
2024/01/24 09:20:19;;;;;;;11.95;2.33;;;;;;;;;;5090338;28;20366;-51
2024/01/24 09:22:45;;;;;;;14.55;2.42;;;;;;;;;;5090221;28;20370;-52
2024/01/24 09:25:11;;;;;;;12.48;2.10;;;;;;;;;;5088398;28;20402;-55
2024/01/24 09:27:37;;;;;;;11.13;2.17;;;;;;;;;;5090278;28;20376;-52
2024/01/24 09:30:03;;;;;;;8.53;1.97;;;;;;;;;;5090356;28;20460;-53
2024/01/24 09:32:29;;;;;;;15.07;2.70;;;;;;;;;;5089697;28;20473;-54
2024/01/24 09:34:55;;;;;;;12.03;2.10;;;;;;;;;;5089720;28;20497;-54
2024/01/24 09:37:22;;;;;;;14.55;2.67;;;;;;;;;;5090047;28;20369;-51
2024/01/24 09:39:49;;;;;;;13.32;2.50;;;;;;;;;;5090166;28;20743;-53
2024/01/24 09:42:20;;;;;;;11.93;2.35;;;;;;;;;;5088363;28;20440;-51
2024/01/24 09:44:48;;;;;;;14.60;2.45;;;;;;;;;;5089664;28;20371;-51
2024/01/24 09:47:15;;;;;;;13.32;2.10;;;;;;;;;;5079627;28;20965;-53
2024/01/24 09:49:42;;;;;;;11.50;2.53;;;;;;;;;;5089934;28;20449;-54
2024/01/24 09:52:08;;;;;;;9.13;2.10;;;;;;;;;;5090176;28;20377;-50
2024/01/24 09:54:35;;;;;;;10.83;1.90;;;;;;;;;;5091783;28;20417;-51
2024/01/24 09:57:01;;;;;;;13.50;2.70;;;;;;;;;;5092528;28;20558;-53
2024/01/24 09:59:27;;;;;;;12.52;2.25;;;;;;;;;;5094083;28;20433;-53
2024/01/24 10:01:53;;;;;;;14.52;2.20;;;;;;;;;;5094047;28;20465;-50
2024/01/24 10:04:19;;;;;;;15.77;2.50;;;;;;;;;;5093546;28;20422;-53
2024/01/24 10:06:45;;;;;;;15.23;3.15;;;;;;;;;;5094248;28;20736;-53
2024/01/24 10:09:11;;;;;;;13.88;2.55;;;;;;;;;;5093888;28;20385;-50
2024/01/24 10:11:37;;;;;;;17.20;2.80;;;;;;;;;;5093885;28;20393;-52
2024/01/24 10:14:03;;;;;;;15.77;3.10;;;;;;;;;;5091247;28;20418;-53
2024/01/24 10:16:29;;;;;;;16.17;2.63;;;;;;;;;;5092567;28;20406;-52
2024/01/24 10:18:56;;;;;;;14.82;3.08;;;;;;;;;;5093844;28;20377;-52
2024/01/24 10:21:22;;;;;;;20.20;3.15;;;;;;;;;;5093872;28;20390;-52
2024/01/24 10:23:48;;;;;;;17.40;3.83;;;;;;;;;;5093277;28;20442;-52
2024/01/24 10:26:15;;;;;;;17.17;3.83;;;;;;;;;;5091211;28;20433;-54
2024/01/24 10:28:43;;;;;;;22.15;3.88;;;;;;;;;;5093325;28;20878;-54
2024/01/24 10:31:09;;;;;;;20.48;3.33;;;;;;;;;;5080014;28;20457;-53
2024/01/24 10:33:35;;;;;;;20.88;3.88;;;;;;;;;;5092811;28;20418;-54
2024/01/24 10:36:01;;;;;;;15.48;3.40;;;;;;;;;;5093517;28;20457;-54
2024/01/24 10:38:31;;;;;;;19.45;3.40;;;;;;;;;;5093386;28;20366;-51
2024/01/24 10:41:01;;;;;;;24.52;4.30;;;;;;;;;;5093307;28;20405;-53
2024/01/24 10:43:27;;;;;;;20.48;3.83;;;;;;;;;;5091155;28;20441;-50
2024/01/24 10:45:53;;;;;;;18.37;3.17;;;;;;;;;;5090107;28;20406;-51
2024/01/24 10:48:20;;;;;;;17.83;3.20;;;;;;;;;;5093182;28;20987;-51
2024/01/24 10:50:46;;;;;;;20.67;3.67;;;;;;;;;;5073622;28;20401;-53
2024/01/24 10:53:15;;;;;;;15.13;3.70;;;;;;;;;;5092169;28;20402;-55
2024/01/24 10:55:42;;;;;;;13.23;3.25;;;;;;;;;;5083003;28;20411;-51
2024/01/24 10:58:11;;;;;;;20.73;4.22;;;;;;;;;;5088819;28;20401;-53
2024/01/24 11:00:39;;;;;;;19.73;3.60;;;;;;;;;;5074677;28;20466;-54
2024/01/24 11:03:06;;;;;;;20.17;3.35;;;;;;;;;;5092849;28;20827;-54
2024/01/24 11:05:46;;;;;;;18.85;3.75;;;;;;;;;;5092373;28;20374;-54
2024/01/24 11:08:32;;;;;;;17.65;3.40;;;;;;;;;;5079463;28;20386;-54
2024/01/24 11:11:00;;;;;;;20.63;3.63;;;;;;;;;;5078733;28;20727;-56
2024/01/24 11:13:26;;;;;;;17.23;3.65;;;;;;;;;;5092035;28;20402;-56
2024/01/24 11:15:55;;;;;;;17.17;3.40;;;;;;;;;;5090735;28;20401;-55
2024/01/24 11:18:25;;;;;;;14.82;3.10;;;;;;;;;;5092723;28;20508;-56
2024/01/24 11:20:52;;;;;;;22.13;3.40;;;;;;;;;;5092393;28;20402;-55
2024/01/24 11:23:41;;;;;;;20.40;3.50;;;;;;;;;;5092413;28;20366;-56
2024/01/24 11:26:09;;;;;;;13.75;3.50;;;;;;;;;;5078116;28;20405;-56
2024/01/24 11:28:35;;;;;;;19.80;3.83;;;;;;;;;;5092226;28;20712;-55
2024/01/24 11:31:01;;;;;;;17.83;3.67;;;;;;;;;;5073987;28;20386;-55
2024/01/24 11:33:27;;;;;;;17.70;3.13;;;;;;;;;;5091677;28;20378;-56
2024/01/24 11:35:55;;;;;;;17.80;3.83;;;;;;;;;;5092568;28;20747;-56
2024/01/24 11:38:26;;;;;;;19.70;3.93;;;;;;;;;;5092180;28;20436;-57
2024/01/24 11:40:52;;;;;;;20.50;3.40;;;;;;;;;;5092584;28;20396;-57
2024/01/24 11:43:23;;;;;;;18.42;3.78;;;;;;;;;;5091211;28;20375;-56
2024/01/24 11:45:51;;;;;;;16.47;3.60;;;;;;;;;;5091671;28;20439;-56
2024/01/24 11:48:17;;;;;;;17.17;3.88;;;;;;;;;;5091750;28;20374;-56
2024/01/24 11:50:46;;;;;;;13.20;2.70;;;;;;;;;;5092200;28;20445;-57
2024/01/24 11:53:11;;;;;;;13.68;2.88;;;;;;;;;;5091846;28;20842;-57
2024/01/24 11:55:37;;;;;;;16.83;2.83;;;;;;;;;;5091876;28;20447;-56
2024/01/24 11:58:05;;;;;;;9.73;2.40;;;;;;;;;;5091570;28;20366;-56
2024/01/24 12:00:31;;;;;;;14.77;2.60;;;;;;;;;;5090591;28;20614;-56
2024/01/24 12:02:57;;;;;;;14.43;3.00;;;;;;;;;;5091421;28;20382;-56
2024/01/24 12:05:23;;;;;;;13.02;2.75;;;;;;;;;;5089533;28;20945;-57
2024/01/24 12:07:49;;;;;;;14.43;3.35;;;;;;;;;;5077957;28;20390;-57
2024/01/24 12:10:15;;;;;;;13.63;2.83;;;;;;;;;;5091643;28;20789;-56
2024/01/24 12:12:42;;;;;;;15.77;2.73;;;;;;;;;;5091338;28;20814;-55
2024/01/24 12:15:09;;;;;;;15.93;2.75;;;;;;;;;;5091025;28;20422;-55
2024/01/24 12:17:38;;;;;;;12.63;2.75;;;;;;;;;;5090895;28;20804;-56
2024/01/24 12:20:05;;;;;;;15.02;3.10;;;;;;;;;;5091525;28;20404;-56
2024/01/24 12:22:31;;;;;;;18.50;3.60;;;;;;;;;;5089671;28;20448;-57
2024/01/24 12:25:00;;;;;;;18.30;4.07;;;;;;;;;;5090967;28;20370;-55
2024/01/24 12:27:26;;;;;;;16.67;3.13;;;;;;;;;;5089411;28;20405;-56
2024/01/24 12:29:53;;;;;;;17.47;3.90;;;;;;;;;;5091342;28;20799;-56
2024/01/24 12:32:21;;;;;;;16.05;3.30;;;;;;;;;;5090938;28;20447;-55
2024/01/24 12:34:47;;;;;;;18.08;3.45;;;;;;;;;;5090640;28;20463;-56
2024/01/24 12:37:13;;;;;;;15.02;3.45;;;;;;;;;;5089545;28;20823;-55
2024/01/24 12:39:39;;;;;;;15.97;3.03;;;;;;;;;;5091194;28;20522;-56
2024/01/24 12:42:05;;;;;;;17.17;3.42;;;;;;;;;;5090890;28;20386;-56
2024/01/24 12:44:32;;;;;;;18.88;3.92;;;;;;;;;;5090485;28;20756;-54
2024/01/24 12:46:59;;;;;;;15.82;3.33;;;;;;;;;;5090844;28;20390;-56
2024/01/24 12:49:25;;;;;;;18.25;3.55;;;;;;;;;;5090997;28;20389;-55
2024/01/24 12:51:51;;;;;;;19.63;3.95;;;;;;;;;;5090670;28;20375;-56
2024/01/24 12:54:17;;;;;;;17.48;3.90;;;;;;;;;;5088612;28;20487;-56
2024/01/24 12:56:45;;;;;;;20.53;2.93;;;;;;;;;;5088464;28;20883;-55
2024/01/24 12:59:11;;;;;;;16.02;3.20;;;;;;;;;;5090725;28;20370;-57
2024/01/24 13:01:37;;;;;;;14.77;3.28;;;;;;;;;;5090450;28;20378;-53
2024/01/24 13:04:03;;;;;;;18.98;3.58;;;;;;;;;;5090304;28;20370;-56
2024/01/24 13:06:29;;;;;;;17.87;3.73;;;;;;;;;;5090519;28;20385;-54
2024/01/24 13:08:55;;;;;;;21.90;4.28;;;;;;;;;;5090344;28;20457;-54
2024/01/24 13:11:21;;;;;;;19.55;3.83;;;;;;;;;;5088912;28;20401;-56
2024/01/24 13:13:47;;;;;;;19.73;3.45;;;;;;;;;;5088063;28;20875;-56
2024/01/24 13:16:13;;;;;;;23.85;3.95;;;;;;;;;;5090436;28;20871;-59
2024/01/24 13:18:38;;;;;;;16.40;3.40;;;;;;;;;;5090258;28;20731;-58
2024/01/24 13:21:05;;;;;;;16.40;3.42;;;;;;;;;;5090158;28;20434;-61
2024/01/24 13:23:31;;;;;;;17.35;3.58;;;;;;;;;;5090864;28;20129;-59
2024/01/24 13:25:57;;;;;;;21.02;4.03;;;;;;;;;;5091395;28;20024;-61
2024/01/24 13:28:23;;;;;;;22.08;2.80;;;;;;;;;;5088516;28;20047;-60
2024/01/24 13:30:49;;;;;;;15.70;3.17;;;;;;;;;;5091169;28;20020;-60
2024/01/24 13:33:16;;;;;;;17.38;3.17;;;;;;;;;;5091145;28;20497;-58
2024/01/24 13:35:42;;;;;;;24.15;2.80;;;;;;;;;;5090683;28;20032;-60
2024/01/24 13:38:08;;;;;;;14.10;3.03;;;;;;;;;;5091173;28;20036;-58
2024/01/24 13:40:34;;;;;;;15.55;2.85;;;;;;;;;;5077746;28;20020;-59
2024/01/24 13:43:00;;;;;;;19.00;4.10;;;;;;;;;;5091262;28;20066;-59
2024/01/24 13:45:26;;;;;;;13.10;2.55;;;;;;;;;;5089260;28;20047;-60
2024/01/24 13:47:52;;;;;;;18.48;3.10;;;;;;;;;;5072991;28;20028;-61
2024/01/24 13:50:18;;;;;;;18.40;2.90;;;;;;;;;;5091165;28;20043;-60
2024/01/24 13:52:44;;;;;;;17.35;3.20;;;;;;;;;;5090846;28;20039;-59
2024/01/24 13:55:11;;;;;;;12.82;2.92;;;;;;;;;;5089017;28;20096;-59
2024/01/24 13:57:37;;;;;;;16.73;2.33;;;;;;;;;;5071840;28;20048;-60
2024/01/24 14:00:04;;;;;;;23.90;2.95;;;;;;;;;;5091236;28;20027;-59
2024/01/24 14:02:30;;;;;;;24.92;3.35;;;;;;;;;;5081904;28;20107;-60
2024/01/24 14:04:57;;;;;;;14.65;2.92;;;;;;;;;;5089984;28;20032;-58
2024/01/24 14:07:23;;;;;;;17.52;3.00;;;;;;;;;;5083611;28;20016;-60
2024/01/24 14:09:49;;;;;;;12.90;2.63;;;;;;;;;;5090360;28;20040;-59
2024/01/24 14:12:14;;;;;;;12.13;3.03;;;;;;;;;;5088033;28;20024;-60
2024/01/24 14:14:40;;;;;;;16.25;2.60;;;;;;;;;;5089576;28;20131;-60
2024/01/24 14:17:06;;;;;;;19.90;2.92;;;;;;;;;;5089647;28;20073;-60
2024/01/24 14:19:32;;;;;;;15.23;2.85;;;;;;;;;;5084790;28;20036;-59
2024/01/24 14:21:58;;;;;;;18.55;3.15;;;;;;;;;;5075280;28;20033;-59
2024/01/24 14:24:24;;;;;;;12.68;2.20;;;;;;;;;;5089637;28;20032;-60
2024/01/24 14:26:50;;;;;;;15.52;3.13;;;;;;;;;;5090584;28;20028;-59
2024/01/24 14:29:16;;;;;;;17.02;2.95;;;;;;;;;;5088681;28;20024;-59
2024/01/24 14:31:42;;;;;;;13.32;2.92;;;;;;;;;;5089681;28;20153;-60